createdAt,value
2022-08-12T00:01:04.050Z,26.07
2022-08-12T00:03:50.574Z,26.07
2022-08-12T00:06:38.045Z,26.04
2022-08-12T00:09:26.416Z,26.05
2022-08-12T00:12:13.058Z,26.06
2022-08-12T00:14:58.082Z,26.06
2022-08-12T00:17:43.866Z,26.04
2022-08-12T00:20:29.852Z,26.05
2022-08-12T00:23:15.870Z,26.06
2022-08-12T00:26:22.562Z,26.06
2022-08-12T00:29:09.820Z,26.03
2022-08-12T00:31:55.520Z,26.04
2022-08-12T00:34:40.508Z,26.03
2022-08-12T00:37:26.024Z,26.04
2022-08-12T00:40:13.971Z,26.05
2022-08-12T00:42:42.001Z,26.06
2022-08-12T00:45:15.543Z,26.01
2022-08-12T00:47:42.443Z,26.03
2022-08-12T00:50:11.400Z,26.05
2022-08-12T00:52:38.701Z,26.04
2022-08-12T00:55:15.267Z,26.03
2022-08-12T00:57:44.672Z,26.05
2022-08-12T01:00:13.283Z,26.03
2022-08-12T01:02:45.748Z,26.05
2022-08-12T01:05:35.662Z,26.03
2022-08-12T01:08:21.696Z,26.00
2022-08-12T01:11:07.860Z,26.00
2022-08-12T01:13:35.403Z,26.01
2022-08-12T01:16:04.267Z,26.01
2022-08-12T01:18:32.875Z,26.02
2022-08-12T01:21:17.930Z,26.00
2022-08-12T01:23:47.784Z,26.00
2022-08-12T01:26:18.956Z,25.99
2022-08-12T01:28:47.530Z,25.99
2022-08-12T01:31:18.103Z,25.98
2022-08-12T01:33:55.815Z,25.98
2022-08-12T01:36:23.241Z,25.95
2022-08-12T01:38:50.692Z,25.95
2022-08-12T01:41:19.729Z,25.95
2022-08-12T01:43:46.956Z,25.94
2022-08-12T01:46:41.507Z,25.96
2022-08-12T01:49:21.788Z,25.97
2022-08-12T01:52:14.728Z,25.96
2022-08-12T01:54:45.058Z,25.90
2022-08-12T01:57:58.948Z,25.96
2022-08-12T02:00:13.955Z,25.96
2022-08-12T02:02:46.697Z,25.93
2022-08-12T02:05:38.852Z,25.92
2022-08-12T02:08:52.247Z,25.90
2022-08-12T02:11:23.407Z,25.91
2022-08-12T02:13:58.164Z,25.92
2022-08-12T02:16:40.788Z,25.90
2022-08-12T02:19:35.159Z,25.90
2022-08-12T02:22:20.337Z,25.89
2022-08-12T02:24:47.268Z,25.95
2022-08-12T02:27:16.330Z,25.88
2022-08-12T02:29:43.202Z,25.89
2022-08-12T02:32:10.152Z,25.90
2022-08-12T02:34:38.009Z,25.90
2022-08-12T02:37:05.258Z,25.89
2022-08-12T02:39:36.458Z,25.91
2022-08-12T02:42:04.931Z,25.88
2022-08-12T02:44:37.656Z,25.86
2022-08-12T02:47:07.592Z,25.87
2022-08-12T02:49:57.219Z,25.86
2022-08-12T02:52:24.573Z,25.86
2022-08-12T02:54:54.082Z,25.84
2022-08-12T02:57:41.668Z,25.83
2022-08-12T03:00:11.269Z,25.82
2022-08-12T03:02:42.991Z,25.83
2022-08-12T03:05:16.449Z,25.82
2022-08-12T03:07:59.825Z,25.80
2022-08-12T03:10:37.338Z,25.83
2022-08-12T03:13:07.774Z,25.83
2022-08-12T03:15:36.643Z,25.80
2022-08-12T03:18:26.004Z,25.80
2022-08-12T03:20:55.814Z,25.82
2022-08-12T03:23:30.272Z,25.77
2022-08-12T03:25:59.219Z,25.79
2022-08-12T03:28:44.969Z,25.79
2022-08-12T03:31:11.869Z,25.80
2022-08-12T03:33:40.458Z,25.81
2022-08-12T03:36:08.647Z,25.78
2022-08-12T03:38:43.220Z,25.77
2022-08-12T03:41:33.665Z,25.77
2022-08-12T03:44:25.833Z,25.78
2022-08-12T03:47:37.462Z,25.77
2022-08-12T03:50:22.928Z,25.77
2022-08-12T03:53:08.532Z,25.75
2022-08-12T03:55:54.246Z,25.76
2022-08-12T03:58:40.143Z,25.74
2022-08-12T04:01:07.455Z,25.84
2022-08-12T04:03:52.611Z,25.74
2022-08-12T04:06:35.035Z,25.71
2022-08-12T04:09:14.675Z,25.71
2022-08-12T04:12:02.733Z,25.77
2022-08-12T04:14:29.486Z,25.70
2022-08-12T04:16:57.134Z,25.71
2022-08-12T04:19:27.202Z,25.70
2022-08-12T04:22:01.919Z,25.74
2022-08-12T04:24:31.803Z,25.70
2022-08-12T04:26:58.623Z,25.67
2022-08-12T04:30:16.786Z,25.66
2022-08-12T04:32:14.571Z,25.66
2022-08-12T04:34:41.941Z,25.66
2022-08-12T04:37:09.112Z,25.65
2022-08-12T04:39:38.440Z,25.66
2022-08-12T04:42:05.416Z,25.66
2022-08-12T04:44:32.503Z,25.66
2022-08-12T04:46:59.311Z,25.65
2022-08-12T04:49:27.076Z,25.64
2022-08-12T04:51:59.250Z,25.64
2022-08-12T04:54:27.180Z,25.65
2022-08-12T04:57:04.002Z,25.65
2022-08-12T04:59:31.886Z,25.61
2022-08-12T05:02:16.736Z,25.62
2022-08-12T05:05:01.404Z,25.65
2022-08-12T05:07:28.123Z,25.62
2022-08-12T05:10:01.910Z,25.62
2022-08-12T05:12:33.297Z,25.64
2022-08-12T05:15:00.833Z,25.67
2022-08-12T05:17:28.101Z,25.61
2022-08-12T05:19:54.952Z,25.63
2022-08-12T05:22:24.375Z,25.64
2022-08-12T05:24:51.085Z,25.64
2022-08-12T05:27:18.186Z,25.63
2022-08-12T05:30:06.789Z,25.63
2022-08-12T05:32:36.374Z,25.64
2022-08-12T05:35:06.916Z,25.60
2022-08-12T05:37:35.026Z,25.60
2022-08-12T05:40:05.635Z,25.59
2022-08-12T05:42:35.187Z,25.58
2022-08-12T05:45:01.855Z,25.61
2022-08-12T05:47:52.641Z,25.59
2022-08-12T05:50:16.114Z,25.57
2022-08-12T05:52:42.816Z,25.58
2022-08-12T05:55:10.691Z,25.57
2022-08-12T05:57:38.495Z,25.58
2022-08-12T06:00:05.507Z,25.58
2022-08-12T06:02:32.170Z,25.57
2022-08-12T06:05:00.489Z,25.57
2022-08-12T06:07:59.777Z,25.57
2022-08-12T06:10:13.915Z,25.57
2022-08-12T06:12:42.719Z,25.58
2022-08-12T06:15:09.721Z,25.57
2022-08-12T06:17:37.693Z,25.59
2022-08-12T06:20:26.520Z,25.57
2022-08-12T06:22:54.270Z,25.57
2022-08-12T06:25:22.278Z,25.56
2022-08-12T06:28:06.294Z,25.56
2022-08-12T06:30:38.564Z,25.57
2022-08-12T06:33:22.070Z,25.58
2022-08-12T06:35:51.894Z,25.57
2022-08-12T06:38:22.730Z,25.56
2022-08-12T06:41:11.118Z,25.57
2022-08-12T06:44:04.557Z,25.56
2022-08-12T06:46:25.163Z,25.57
2022-08-12T06:48:56.869Z,25.59
2022-08-12T06:51:23.827Z,25.58
2022-08-12T06:53:50.506Z,25.59
2022-08-12T06:56:17.168Z,25.60
2022-08-12T06:58:44.816Z,25.56
2022-08-12T07:01:11.736Z,25.57
2022-08-12T07:03:38.602Z,25.58
2022-08-12T07:06:06.812Z,25.55
2022-08-12T07:08:34.322Z,25.57
2022-08-12T07:11:02.831Z,25.60
2022-08-12T07:14:11.953Z,25.57
2022-08-12T07:16:24.995Z,25.58
2022-08-12T07:18:53.736Z,25.59
2022-08-12T07:21:20.495Z,25.58
2022-08-12T07:23:47.279Z,25.57
2022-08-12T07:26:17.378Z,25.62
2022-08-12T07:28:44.310Z,25.60
2022-08-12T07:31:11.776Z,25.62
2022-08-12T07:33:39.981Z,25.60
2022-08-12T07:36:08.233Z,25.61
2022-08-12T07:38:36.202Z,25.59
2022-08-12T07:41:03.411Z,25.59
2022-08-12T07:43:31.208Z,25.60
2022-08-12T07:45:58.797Z,25.62
2022-08-12T07:48:25.631Z,25.60
2022-08-12T07:50:53.272Z,25.61
2022-08-12T07:53:20.886Z,25.61
2022-08-12T07:55:48.059Z,25.61
2022-08-12T07:58:14.808Z,25.63
2022-08-12T08:00:41.616Z,25.63
2022-08-12T08:03:09.105Z,25.63
2022-08-12T08:05:46.665Z,25.63
2022-08-12T08:08:17.980Z,25.62
2022-08-12T08:10:45.393Z,25.63
2022-08-12T08:13:12.788Z,25.64
2022-08-12T08:18:27.825Z,25.64
2022-08-12T08:20:55.988Z,25.65
2022-08-12T08:23:35.059Z,25.68
2022-08-12T08:26:01.981Z,25.66
2022-08-12T08:28:29.134Z,25.70
2022-08-12T08:30:55.922Z,25.68
2022-08-12T08:34:04.699Z,25.70
2022-08-12T08:36:16.250Z,25.70
2022-08-12T08:38:53.240Z,25.67
2022-08-12T08:42:16.362Z,25.68
2022-08-12T08:44:29.769Z,25.70
2022-08-12T08:46:56.560Z,25.70
2022-08-12T08:49:23.472Z,25.72
2022-08-12T08:51:50.342Z,25.72
2022-08-12T08:54:17.145Z,25.70
2022-08-12T08:56:50.016Z,25.69
2022-08-12T08:59:22.770Z,25.74
2022-08-12T09:01:49.555Z,25.74
2022-08-12T09:05:07.636Z,25.77
2022-08-12T09:07:17.024Z,25.75
2022-08-12T09:12:54.920Z,25.77
2022-08-12T09:15:22.825Z,25.80
2022-08-12T09:18:03.083Z,25.80
2022-08-12T09:20:33.788Z,25.80
2022-08-12T09:23:07.753Z,25.83
2022-08-12T09:25:52.528Z,25.85
2022-08-12T09:28:21.452Z,25.85
2022-08-12T09:30:59.141Z,25.84
2022-08-12T09:34:28.217Z,25.84
2022-08-12T09:36:31.199Z,25.86
2022-08-12T09:40:06.243Z,25.87
2022-08-12T09:42:38.102Z,25.86
2022-08-12T09:45:23.552Z,25.88
2022-08-12T09:47:59.590Z,25.92
2022-08-12T09:50:27.111Z,25.93
2022-08-12T09:53:15.538Z,25.95
2022-08-12T09:56:06.574Z,25.98
2022-08-12T09:58:57.818Z,26.01
2022-08-12T10:01:23.354Z,26.03
2022-08-12T10:04:04.186Z,26.05
2022-08-12T10:06:55.230Z,26.07
2022-08-12T10:09:56.907Z,26.08
2022-08-12T10:12:43.014Z,26.10
2022-08-12T10:15:15.379Z,26.12
2022-08-12T10:18:07.079Z,26.17
2022-08-12T10:20:34.390Z,26.18
2022-08-12T10:23:01.917Z,26.19
2022-08-12T10:26:35.959Z,26.23
2022-08-12T10:29:01.747Z,26.25
2022-08-12T10:32:19.789Z,26.27
2022-08-12T10:34:23.947Z,26.29
2022-08-12T10:37:00.232Z,26.31
2022-08-12T10:40:02.226Z,26.35
2022-08-12T10:42:46.102Z,26.33
2022-08-12T10:45:14.293Z,26.37
2022-08-12T10:48:20.545Z,26.38
2022-08-12T10:51:01.069Z,26.38
2022-08-12T10:53:20.996Z,26.40
2022-08-12T10:56:08.335Z,26.42
2022-08-12T10:58:36.822Z,26.42
2022-08-12T11:04:14.526Z,26.43
2022-08-12T11:04:26.007Z,26.45
2022-08-12T11:07:06.815Z,26.46
2022-08-12T11:09:41.857Z,26.48
2022-08-12T11:12:54.740Z,26.50
2022-08-12T11:15:19.132Z,26.52
2022-08-12T11:17:53.301Z,26.52
2022-08-12T11:20:21.000Z,26.57
2022-08-12T11:23:04.299Z,26.58
2022-08-12T11:25:57.296Z,26.57
2022-08-12T11:28:33.352Z,26.62
2022-08-12T11:31:02.643Z,26.64
2022-08-12T11:34:05.951Z,26.65
2022-08-12T11:36:16.884Z,26.63
2022-08-12T11:38:50.330Z,26.65
2022-08-12T11:41:28.038Z,26.63
2022-08-12T11:43:59.206Z,26.66
2022-08-12T11:46:26.111Z,26.67
2022-08-12T11:48:52.967Z,26.66
2022-08-12T11:51:20.941Z,26.67
2022-08-12T11:53:59.387Z,26.69
2022-08-12T11:56:40.778Z,26.67
2022-08-12T12:02:01.445Z,26.69
2022-08-12T12:04:31.100Z,26.71
2022-08-12T12:07:07.197Z,26.73
2022-08-12T12:09:52.279Z,26.73
2022-08-12T12:12:21.514Z,26.72
2022-08-12T12:14:54.449Z,26.72
2022-08-12T12:17:21.905Z,26.72
2022-08-12T12:19:48.817Z,26.72
2022-08-12T12:22:23.178Z,26.71
2022-08-12T12:24:51.403Z,26.72
2022-08-12T12:27:19.547Z,26.73
2022-08-12T12:30:19.921Z,26.73
2022-08-12T12:32:33.277Z,26.74
2022-08-12T12:36:05.463Z,26.74
2022-08-12T12:38:05.089Z,26.74
2022-08-12T12:40:39.790Z,26.74
2022-08-12T12:43:07.274Z,26.73
2022-08-12T12:45:35.545Z,26.74
2022-08-12T12:48:04.162Z,26.73
2022-08-12T12:50:35.264Z,26.74
2022-08-12T12:53:02.969Z,26.77
2022-08-12T12:55:32.633Z,26.75
2022-08-12T12:58:04.913Z,26.77
2022-08-12T13:00:32.933Z,26.77
2022-08-12T13:03:00.026Z,26.76
2022-08-12T13:05:42.471Z,26.77
2022-08-12T13:08:28.359Z,26.79
2022-08-12T13:11:04.349Z,26.83
2022-08-12T13:14:10.120Z,26.80
2022-08-12T13:16:21.803Z,26.79
2022-08-12T13:18:52.523Z,26.84
2022-08-12T13:21:32.946Z,26.79
2022-08-12T13:24:10.526Z,26.80
2022-08-12T13:26:42.662Z,26.83
2022-08-12T13:29:11.561Z,26.81
2022-08-12T13:32:17.387Z,26.83
2022-08-12T13:34:32.523Z,26.83
2022-08-12T13:37:02.137Z,26.84
2022-08-12T13:39:30.334Z,26.84
2022-08-12T13:41:57.414Z,26.84
2022-08-12T13:44:26.478Z,26.86
2022-08-12T13:46:58.070Z,26.84
2022-08-12T13:49:53.611Z,26.84
2022-08-12T13:52:13.806Z,26.87
2022-08-12T13:54:40.581Z,26.87
2022-08-12T13:57:11.118Z,26.87
2022-08-12T13:59:48.685Z,26.88
2022-08-12T14:02:22.627Z,26.86
2022-08-12T14:04:56.440Z,26.86
2022-08-12T14:07:23.781Z,26.86
2022-08-12T14:10:11.308Z,26.86
2022-08-12T14:12:40.308Z,26.86
2022-08-12T14:15:21.679Z,26.87
2022-08-12T14:18:23.067Z,26.88
2022-08-12T14:20:58.602Z,26.87
2022-08-12T14:24:04.727Z,26.89
2022-08-12T14:26:19.959Z,26.89
2022-08-12T14:29:01.908Z,26.88
2022-08-12T14:31:31.981Z,26.90
2022-08-12T14:33:59.569Z,26.91
2022-08-12T14:36:26.472Z,26.90
2022-08-12T14:38:55.448Z,26.90
2022-08-12T14:41:23.455Z,26.89
2022-08-12T14:44:06.323Z,26.91
2022-08-12T14:46:59.205Z,26.89
2022-08-12T14:50:01.372Z,26.89
2022-08-12T14:53:44.116Z,26.89
2022-08-12T14:57:57.354Z,26.89
2022-08-12T15:00:50.643Z,26.91
2022-08-12T15:03:21.850Z,26.93
2022-08-12T15:06:05.804Z,26.92
2022-08-12T15:08:35.226Z,26.92
2022-08-12T15:11:05.574Z,26.95
2022-08-12T15:13:39.828Z,26.93
2022-08-12T15:16:10.589Z,26.92
2022-08-12T15:18:37.639Z,26.93
2022-08-12T15:21:09.892Z,26.92
2022-08-12T15:23:54.905Z,26.91
2022-08-12T15:26:27.464Z,26.91
2022-08-12T15:28:56.513Z,26.92
2022-08-12T15:31:28.249Z,26.93
2022-08-12T15:34:11.211Z,26.94
2022-08-12T15:36:55.137Z,26.95
2022-08-12T15:39:22.347Z,26.94
2022-08-12T15:41:50.868Z,26.96
2022-08-12T15:44:41.624Z,26.96
2022-08-12T15:47:08.976Z,26.97
2022-08-12T15:49:54.141Z,26.96
2022-08-12T15:52:27.362Z,26.96
2022-08-12T15:54:58.555Z,26.95
2022-08-12T15:57:25.669Z,26.98
2022-08-12T16:00:07.611Z,26.96
2022-08-12T16:02:47.393Z,26.96
2022-08-12T16:06:12.527Z,26.99
2022-08-12T16:08:15.175Z,26.98
2022-08-12T16:10:45.425Z,26.98
2022-08-12T16:13:13.582Z,26.98
2022-08-12T16:15:51.115Z,26.99
2022-08-12T16:18:31.629Z,27.00
2022-08-12T16:20:58.444Z,27.01
2022-08-12T16:23:35.961Z,27.00
2022-08-12T16:26:14.670Z,27.01
2022-08-12T16:28:42.808Z,27.04
2022-08-12T16:31:14.519Z,27.07
2022-08-12T16:33:56.296Z,27.10
2022-08-12T16:36:25.884Z,27.06
2022-08-12T16:38:52.719Z,27.07
2022-08-12T16:41:19.358Z,27.08
2022-08-12T16:43:46.834Z,27.07
2022-08-12T16:46:31.768Z,27.05
2022-08-12T16:48:59.740Z,27.06
2022-08-12T16:51:37.497Z,27.03
2022-08-12T16:54:13.542Z,27.04
2022-08-12T16:56:55.320Z,27.04
2022-08-12T16:59:25.748Z,27.04
2022-08-12T17:01:53.775Z,27.04
2022-08-12T17:04:20.932Z,27.02
2022-08-12T17:06:52.789Z,27.03
2022-08-12T17:09:19.632Z,27.00
2022-08-12T17:11:49.380Z,26.99
2022-08-12T17:14:16.583Z,26.98
2022-08-12T17:16:45.706Z,27.00
2022-08-12T17:19:14.474Z,26.98
2022-08-12T17:22:02.323Z,26.98
2022-08-12T17:24:32.620Z,26.99
2022-08-12T17:27:09.448Z,26.98
2022-08-12T17:30:02.927Z,26.97
2022-08-12T17:32:33.816Z,26.97
2022-08-12T17:35:19.924Z,26.96
2022-08-12T17:37:48.701Z,26.97
2022-08-12T17:40:34.792Z,26.98
2022-08-12T17:43:55.673Z,26.97
2022-08-12T17:45:56.327Z,26.94
2022-08-12T17:48:35.069Z,26.94
2022-08-12T17:51:15.359Z,26.94
2022-08-12T17:54:06.319Z,26.95
2022-08-12T17:56:37.687Z,26.94
2022-08-12T17:59:04.358Z,26.93
2022-08-12T18:01:35.923Z,26.93
2022-08-12T18:04:22.905Z,26.93
2022-08-12T18:06:52.799Z,26.92
2022-08-12T18:09:21.426Z,26.93
2022-08-12T18:12:08.383Z,26.92
2022-08-12T18:14:37.122Z,26.91
2022-08-12T18:17:08.531Z,26.90
2022-08-12T18:20:06.961Z,26.90
2022-08-12T18:22:30.287Z,26.89
2022-08-12T18:25:03.774Z,26.90
2022-08-12T18:27:46.689Z,26.89
2022-08-12T18:30:20.262Z,26.88
2022-08-12T18:32:58.275Z,26.88
2022-08-12T18:35:46.398Z,26.88
2022-08-12T18:38:13.234Z,26.88
2022-08-12T18:41:06.154Z,26.88
2022-08-12T18:43:38.933Z,26.90
2022-08-12T18:46:29.385Z,26.89
2022-08-12T18:49:17.062Z,26.88
2022-08-12T18:51:55.236Z,26.89
2022-08-12T18:54:32.350Z,26.89
2022-08-12T18:57:03.933Z,26.88
2022-08-12T18:59:59.730Z,26.88
2022-08-12T19:02:23.119Z,26.87
2022-08-12T19:04:53.321Z,26.87
2022-08-12T19:07:29.909Z,26.86
2022-08-12T19:10:13.905Z,26.86
2022-08-12T19:13:01.974Z,26.85
2022-08-12T19:15:30.049Z,26.84
2022-08-12T19:18:02.666Z,26.85
2022-08-12T19:20:32.011Z,26.86
2022-08-12T19:23:02.455Z,26.84
2022-08-12T19:26:00.047Z,26.83
2022-08-12T19:28:30.414Z,26.84
2022-08-12T19:31:55.651Z,26.84
2022-08-12T19:34:55.930Z,26.83
2022-08-12T19:37:10.304Z,26.84
2022-08-12T19:40:08.991Z,26.83
2022-08-12T19:42:28.349Z,26.83
2022-08-12T19:45:01.714Z,26.83
2022-08-12T19:47:38.443Z,26.81
2022-08-12T19:50:06.518Z,26.82
2022-08-12T19:52:34.184Z,26.81
2022-08-12T19:55:01.610Z,26.81
2022-08-12T19:57:29.792Z,26.82
2022-08-12T20:00:04.215Z,26.84
2022-08-12T20:02:34.807Z,26.85
2022-08-12T20:06:06.941Z,26.83
2022-08-12T20:07:57.006Z,26.81
2022-08-12T20:10:35.451Z,26.82
2022-08-12T20:13:18.212Z,26.82
2022-08-12T20:15:59.883Z,26.80
2022-08-12T20:18:53.661Z,26.81
2022-08-12T20:21:16.161Z,26.80
2022-08-12T20:24:00.541Z,26.81
2022-08-12T20:26:35.800Z,26.82
2022-08-12T20:29:05.353Z,26.81
2022-08-12T20:31:33.059Z,26.79
2022-08-12T20:34:00.623Z,26.81
2022-08-12T20:36:41.260Z,26.83
2022-08-12T20:39:33.937Z,26.81
2022-08-12T20:41:59.054Z,26.81
2022-08-12T20:44:30.877Z,26.80
2022-08-12T20:47:18.264Z,26.81
2022-08-12T20:49:54.879Z,26.80
2022-08-12T20:52:41.634Z,26.79
2022-08-12T20:55:15.798Z,26.80
2022-08-12T20:58:02.159Z,26.79
2022-08-12T21:00:32.072Z,26.79
2022-08-12T21:03:19.922Z,26.80
2022-08-12T21:06:12.116Z,26.80
2022-08-12T21:08:41.356Z,26.81
2022-08-12T21:11:10.007Z,26.79
2022-08-12T21:13:39.448Z,26.79
2022-08-12T21:16:09.912Z,26.79
2022-08-12T21:18:38.330Z,26.80
2022-08-12T21:21:06.937Z,26.79
2022-08-12T21:23:56.533Z,26.79
2022-08-12T21:26:28.446Z,26.76
2022-08-12T21:29:01.655Z,26.80
2022-08-12T21:32:37.066Z,26.78
2022-08-12T21:34:19.834Z,26.77
2022-08-12T21:36:49.576Z,26.79
2022-08-12T21:39:24.019Z,26.82
2022-08-12T21:41:55.011Z,26.83
2022-08-12T21:44:23.998Z,26.81
2022-08-12T21:47:20.852Z,26.80
2022-08-12T21:50:02.829Z,26.79
2022-08-12T21:52:40.562Z,26.78
2022-08-12T21:55:17.762Z,26.79
2022-08-12T21:57:53.606Z,26.80
2022-08-12T22:00:33.498Z,26.80
2022-08-12T22:04:04.010Z,26.77
2022-08-12T22:06:25.849Z,26.76
2022-08-12T22:09:02.410Z,26.78
2022-08-12T22:11:41.732Z,26.78
2022-08-12T22:14:17.841Z,26.80
2022-08-12T22:16:49.641Z,26.77
2022-08-12T22:19:20.908Z,26.74
2022-08-12T22:21:53.263Z,26.78
2022-08-12T22:24:27.736Z,26.77
2022-08-12T22:26:57.699Z,26.76
2022-08-12T22:29:44.604Z,26.74
2022-08-12T22:32:13.612Z,26.76
2022-08-12T22:34:45.060Z,26.78
2022-08-12T22:37:19.838Z,26.79
2022-08-12T22:39:49.205Z,26.77
2022-08-12T22:42:52.301Z,26.77
2022-08-12T22:45:48.268Z,26.76
2022-08-12T22:48:20.119Z,26.75
2022-08-12T22:50:59.214Z,26.76
2022-08-12T22:53:36.140Z,26.76
2022-08-12T22:56:06.377Z,26.78
2022-08-12T22:58:40.776Z,26.79
2022-08-12T23:01:08.237Z,26.78
2022-08-12T23:03:49.006Z,26.79
2022-08-12T23:06:22.897Z,26.80
2022-08-12T23:08:51.077Z,26.78
2022-08-12T23:11:23.709Z,26.78
2022-08-12T23:13:56.256Z,26.80
2022-08-12T23:16:33.979Z,26.80
2022-08-12T23:19:10.704Z,26.79
2022-08-12T23:22:05.321Z,26.76
2022-08-12T23:24:56.584Z,26.76
2022-08-12T23:27:50.295Z,26.76
2022-08-12T23:30:25.261Z,26.74
2022-08-12T23:33:00.631Z,26.75
2022-08-12T23:35:45.336Z,26.74
2022-08-12T23:38:28.971Z,26.74
2022-08-12T23:40:58.388Z,26.75
2022-08-12T23:43:25.841Z,26.74
2022-08-12T23:46:00.972Z,26.72
2022-08-12T23:48:31.420Z,26.74
2022-08-12T23:51:01.939Z,26.72
2022-08-12T23:53:48.774Z,26.74
2022-08-12T23:56:16.787Z,26.74
2022-08-12T23:58:49.927Z,26.73
